sensor_id;sensor_type;location;lat;lon;timestamp;P1;durP1;ratioP1;P2;durP2;ratioP2
19675;SDS011;39539;52.202;9.876;2023-09-19T00:00:57;1.00;;;1.00;;
19675;SDS011;39539;52.202;9.876;2023-09-19T00:03:23;1.45;;;1.13;;
19675;SDS011;39539;52.202;9.876;2023-09-19T00:05:50;1.52;;;1.30;;
19675;SDS011;39539;52.202;9.876;2023-09-19T00:08:16;1.80;;;1.35;;
19675;SDS011;39539;52.202;9.876;2023-09-19T00:10:42;1.45;;;1.35;;
19675;SDS011;39539;52.202;9.876;2023-09-19T00:13:08;1.75;;;1.63;;
19675;SDS011;39539;52.202;9.876;2023-09-19T00:15:42;4.22;;;1.38;;
19675;SDS011;39539;52.202;9.876;2023-09-19T00:18:13;1.60;;;1.40;;
19675;SDS011;39539;52.202;9.876;2023-09-19T00:20:40;3.40;;;1.48;;
19675;SDS011;39539;52.202;9.876;2023-09-19T00:23:07;2.35;;;1.58;;
19675;SDS011;39539;52.202;9.876;2023-09-19T00:25:36;2.13;;;1.40;;
19675;SDS011;39539;52.202;9.876;2023-09-19T00:28:02;1.52;;;1.40;;
19675;SDS011;39539;52.202;9.876;2023-09-19T00:30:29;2.65;;;1.92;;
19675;SDS011;39539;52.202;9.876;2023-09-19T00:32:55;2.80;;;2.20;;
19675;SDS011;39539;52.202;9.876;2023-09-19T00:35:21;2.67;;;2.45;;
19675;SDS011;39539;52.202;9.876;2023-09-19T00:37:50;2.72;;;2.08;;
19675;SDS011;39539;52.202;9.876;2023-09-19T00:40:16;3.65;;;2.38;;
19675;SDS011;39539;52.202;9.876;2023-09-19T00:42:42;3.13;;;2.60;;
19675;SDS011;39539;52.202;9.876;2023-09-19T00:45:08;3.22;;;2.67;;
19675;SDS011;39539;52.202;9.876;2023-09-19T00:47:45;4.32;;;3.10;;
19675;SDS011;39539;52.202;9.876;2023-09-19T00:50:15;3.28;;;3.03;;
19675;SDS011;39539;52.202;9.876;2023-09-19T00:52:43;3.70;;;2.90;;
19675;SDS011;39539;52.202;9.876;2023-09-19T00:55:09;5.00;;;4.22;;
19675;SDS011;39539;52.202;9.876;2023-09-19T00:57:37;4.90;;;4.50;;
19675;SDS011;39539;52.202;9.876;2023-09-19T01:00:06;6.70;;;4.97;;
19675;SDS011;39539;52.202;9.876;2023-09-19T01:02:33;6.60;;;6.00;;
19675;SDS011;39539;52.202;9.876;2023-09-19T01:05:00;6.70;;;5.72;;
19675;SDS011;39539;52.202;9.876;2023-09-19T01:07:26;6.03;;;5.63;;
19675;SDS011;39539;52.202;9.876;2023-09-19T01:09:55;6.43;;;5.82;;
19675;SDS011;39539;52.202;9.876;2023-09-19T01:12:26;6.30;;;5.80;;
19675;SDS011;39539;52.202;9.876;2023-09-19T01:15:17;6.22;;;5.82;;
19675;SDS011;39539;52.202;9.876;2023-09-19T01:18:27;5.75;;;5.35;;
19675;SDS011;39539;52.202;9.876;2023-09-19T01:24:00;6.43;;;5.93;;
19675;SDS011;39539;52.202;9.876;2023-09-19T01:26:53;6.72;;;6.13;;
19675;SDS011;39539;52.202;9.876;2023-09-19T01:29:46;7.38;;;6.82;;
19675;SDS011;39539;52.202;9.876;2023-09-19T01:32:15;6.10;;;5.53;;
19675;SDS011;39539;52.202;9.876;2023-09-19T01:34:54;6.00;;;5.50;;
19675;SDS011;39539;52.202;9.876;2023-09-19T01:37:23;5.00;;;4.63;;
19675;SDS011;39539;52.202;9.876;2023-09-19T01:39:54;5.40;;;4.90;;
19675;SDS011;39539;52.202;9.876;2023-09-19T01:45:06;7.78;;;6.22;;
19675;SDS011;39539;52.202;9.876;2023-09-19T01:47:37;6.60;;;5.97;;
19675;SDS011;39539;52.202;9.876;2023-09-19T01:52:53;5.85;;;5.38;;
19675;SDS011;39539;52.202;9.876;2023-09-19T01:55:22;5.50;;;5.07;;
19675;SDS011;39539;52.202;9.876;2023-09-19T01:58:05;5.97;;;4.20;;
19675;SDS011;39539;52.202;9.876;2023-09-19T02:00:42;4.25;;;3.80;;
19675;SDS011;39539;52.202;9.876;2023-09-19T02:03:10;4.30;;;3.90;;
19675;SDS011;39539;52.202;9.876;2023-09-19T02:05:37;4.95;;;3.95;;
19675;SDS011;39539;52.202;9.876;2023-09-19T02:08:04;5.90;;;3.83;;
19675;SDS011;39539;52.202;9.876;2023-09-19T02:10:30;7.05;;;4.07;;
19675;SDS011;39539;52.202;9.876;2023-09-19T02:12:55;6.68;;;4.10;;
19675;SDS011;39539;52.202;9.876;2023-09-19T02:15:21;5.40;;;4.15;;
19675;SDS011;39539;52.202;9.876;2023-09-19T02:17:47;5.38;;;4.75;;
19675;SDS011;39539;52.202;9.876;2023-09-19T02:20:13;5.38;;;4.22;;
19675;SDS011;39539;52.202;9.876;2023-09-19T02:22:42;7.03;;;4.68;;
19675;SDS011;39539;52.202;9.876;2023-09-19T02:25:07;6.25;;;4.85;;
19675;SDS011;39539;52.202;9.876;2023-09-19T02:27:33;6.68;;;4.35;;
19675;SDS011;39539;52.202;9.876;2023-09-19T02:29:59;5.75;;;4.60;;
19675;SDS011;39539;52.202;9.876;2023-09-19T02:32:27;4.65;;;4.25;;
19675;SDS011;39539;52.202;9.876;2023-09-19T02:34:55;4.45;;;4.15;;
19675;SDS011;39539;52.202;9.876;2023-09-19T02:37:20;5.47;;;4.53;;
19675;SDS011;39539;52.202;9.876;2023-09-19T02:39:46;5.35;;;4.22;;
19675;SDS011;39539;52.202;9.876;2023-09-19T02:42:11;4.80;;;4.30;;
19675;SDS011;39539;52.202;9.876;2023-09-19T02:44:37;5.38;;;4.63;;
19675;SDS011;39539;52.202;9.876;2023-09-19T02:47:03;5.07;;;4.25;;
19675;SDS011;39539;52.202;9.876;2023-09-19T02:49:29;4.85;;;4.45;;
19675;SDS011;39539;52.202;9.876;2023-09-19T02:51:54;6.57;;;4.43;;
19675;SDS011;39539;52.202;9.876;2023-09-19T02:54:19;5.03;;;3.97;;
19675;SDS011;39539;52.202;9.876;2023-09-19T02:56:45;4.50;;;4.10;;
19675;SDS011;39539;52.202;9.876;2023-09-19T02:59:12;5.20;;;4.13;;
19675;SDS011;39539;52.202;9.876;2023-09-19T03:01:42;4.78;;;4.32;;
19675;SDS011;39539;52.202;9.876;2023-09-19T03:04:08;5.82;;;4.25;;
19675;SDS011;39539;52.202;9.876;2023-09-19T03:06:36;5.25;;;4.28;;
19675;SDS011;39539;52.202;9.876;2023-09-19T03:09:01;4.38;;;3.95;;
19675;SDS011;39539;52.202;9.876;2023-09-19T03:11:31;5.18;;;4.00;;
19675;SDS011;39539;52.202;9.876;2023-09-19T03:13:56;5.35;;;4.40;;
19675;SDS011;39539;52.202;9.876;2023-09-19T03:16:21;4.38;;;4.00;;
19675;SDS011;39539;52.202;9.876;2023-09-19T03:18:47;7.32;;;4.30;;
19675;SDS011;39539;52.202;9.876;2023-09-19T03:21:14;6.18;;;4.55;;
19675;SDS011;39539;52.202;9.876;2023-09-19T03:23:40;5.18;;;4.68;;
19675;SDS011;39539;52.202;9.876;2023-09-19T03:26:05;5.95;;;4.95;;
19675;SDS011;39539;52.202;9.876;2023-09-19T03:28:32;6.78;;;5.38;;
19675;SDS011;39539;52.202;9.876;2023-09-19T03:31:01;5.90;;;5.38;;
19675;SDS011;39539;52.202;9.876;2023-09-19T03:33:27;5.38;;;4.97;;
19675;SDS011;39539;52.202;9.876;2023-09-19T03:35:53;6.40;;;5.82;;
19675;SDS011;39539;52.202;9.876;2023-09-19T03:38:19;7.22;;;6.53;;
19675;SDS011;39539;52.202;9.876;2023-09-19T03:40:44;6.55;;;5.95;;
19675;SDS011;39539;52.202;9.876;2023-09-19T03:43:10;6.97;;;6.25;;
19675;SDS011;39539;52.202;9.876;2023-09-19T03:45:35;7.53;;;5.75;;
19675;SDS011;39539;52.202;9.876;2023-09-19T03:48:00;6.85;;;5.85;;
19675;SDS011;39539;52.202;9.876;2023-09-19T03:50:26;6.93;;;6.10;;
19675;SDS011;39539;52.202;9.876;2023-09-19T03:52:55;6.75;;;5.63;;
19675;SDS011;39539;52.202;9.876;2023-09-19T03:55:22;6.47;;;5.88;;
19675;SDS011;39539;52.202;9.876;2023-09-19T03:57:48;6.95;;;6.30;;
19675;SDS011;39539;52.202;9.876;2023-09-19T04:00:14;9.40;;;6.22;;
19675;SDS011;39539;52.202;9.876;2023-09-19T04:02:43;9.05;;;6.03;;
19675;SDS011;39539;52.202;9.876;2023-09-19T04:05:08;7.40;;;6.72;;
19675;SDS011;39539;52.202;9.876;2023-09-19T04:07:35;7.07;;;6.43;;
19675;SDS011;39539;52.202;9.876;2023-09-19T04:10:00;7.63;;;6.90;;
19675;SDS011;39539;52.202;9.876;2023-09-19T04:12:26;9.00;;;7.18;;
19675;SDS011;39539;52.202;9.876;2023-09-19T04:14:51;7.50;;;6.80;;
19675;SDS011;39539;52.202;9.876;2023-09-19T04:17:16;7.63;;;6.85;;
19675;SDS011;39539;52.202;9.876;2023-09-19T04:19:42;8.48;;;7.10;;
19675;SDS011;39539;52.202;9.876;2023-09-19T04:22:07;7.30;;;6.50;;
19675;SDS011;39539;52.202;9.876;2023-09-19T04:24:34;8.05;;;6.88;;
19675;SDS011;39539;52.202;9.876;2023-09-19T04:26:59;8.20;;;6.50;;
19675;SDS011;39539;52.202;9.876;2023-09-19T04:29:24;7.30;;;6.60;;
19675;SDS011;39539;52.202;9.876;2023-09-19T04:31:51;8.57;;;6.53;;
19675;SDS011;39539;52.202;9.876;2023-09-19T04:34:17;7.82;;;7.13;;
19675;SDS011;39539;52.202;9.876;2023-09-19T04:36:43;8.57;;;7.35;;
19675;SDS011;39539;52.202;9.876;2023-09-19T04:39:08;12.63;;;8.48;;
19675;SDS011;39539;52.202;9.876;2023-09-19T04:41:36;9.02;;;8.15;;
19675;SDS011;39539;52.202;9.876;2023-09-19T04:44:03;8.73;;;7.93;;
19675;SDS011;39539;52.202;9.876;2023-09-19T04:46:29;10.20;;;8.60;;
19675;SDS011;39539;52.202;9.876;2023-09-19T04:48:55;9.70;;;8.63;;
19675;SDS011;39539;52.202;9.876;2023-09-19T04:51:22;8.90;;;7.97;;
19675;SDS011;39539;52.202;9.876;2023-09-19T04:53:47;7.40;;;6.65;;
19675;SDS011;39539;52.202;9.876;2023-09-19T04:56:13;7.82;;;6.82;;
19675;SDS011;39539;52.202;9.876;2023-09-19T04:58:38;8.98;;;6.68;;
19675;SDS011;39539;52.202;9.876;2023-09-19T05:01:04;7.30;;;6.22;;
19675;SDS011;39539;52.202;9.876;2023-09-19T05:03:29;9.02;;;6.72;;
19675;SDS011;39539;52.202;9.876;2023-09-19T05:05:54;6.95;;;5.80;;
19675;SDS011;39539;52.202;9.876;2023-09-19T05:08:20;8.60;;;6.63;;
19675;SDS011;39539;52.202;9.876;2023-09-19T05:10:47;6.80;;;6.20;;
19675;SDS011;39539;52.202;9.876;2023-09-19T05:13:13;7.10;;;6.40;;
19675;SDS011;39539;52.202;9.876;2023-09-19T05:15:39;6.90;;;5.82;;
19675;SDS011;39539;52.202;9.876;2023-09-19T05:18:04;8.77;;;6.97;;
19675;SDS011;39539;52.202;9.876;2023-09-19T05:20:31;9.73;;;6.40;;
19675;SDS011;39539;52.202;9.876;2023-09-19T05:23:05;7.72;;;6.22;;
19675;SDS011;39539;52.202;9.876;2023-09-19T05:25:36;7.10;;;6.15;;
19675;SDS011;39539;52.202;9.876;2023-09-19T05:28:05;6.88;;;6.18;;
19675;SDS011;39539;52.202;9.876;2023-09-19T05:30:35;9.13;;;6.43;;
19675;SDS011;39539;52.202;9.876;2023-09-19T05:33:09;7.97;;;5.78;;
19675;SDS011;39539;52.202;9.876;2023-09-19T05:35:35;7.95;;;7.22;;
19675;SDS011;39539;52.202;9.876;2023-09-19T05:38:06;7.03;;;6.32;;
19675;SDS011;39539;52.202;9.876;2023-09-19T05:40:34;8.13;;;7.30;;
19675;SDS011;39539;52.202;9.876;2023-09-19T05:43:00;8.48;;;7.10;;
19675;SDS011;39539;52.202;9.876;2023-09-19T05:45:27;10.57;;;7.57;;
19675;SDS011;39539;52.202;9.876;2023-09-19T05:47:54;8.25;;;7.28;;
19675;SDS011;39539;52.202;9.876;2023-09-19T05:50:34;8.50;;;6.07;;
19675;SDS011;39539;52.202;9.876;2023-09-19T05:53:02;10.77;;;6.93;;
19675;SDS011;39539;52.202;9.876;2023-09-19T05:55:29;7.38;;;6.60;;
19675;SDS011;39539;52.202;9.876;2023-09-19T05:57:56;8.82;;;6.10;;
19675;SDS011;39539;52.202;9.876;2023-09-19T06:00:24;7.47;;;5.65;;
19675;SDS011;39539;52.202;9.876;2023-09-19T06:02:54;6.88;;;5.93;;
19675;SDS011;39539;52.202;9.876;2023-09-19T06:05:21;7.43;;;5.50;;
19675;SDS011;39539;52.202;9.876;2023-09-19T06:07:49;7.57;;;5.70;;
19675;SDS011;39539;52.202;9.876;2023-09-19T06:10:15;8.50;;;5.32;;
19675;SDS011;39539;52.202;9.876;2023-09-19T06:12:42;8.50;;;5.50;;
19675;SDS011;39539;52.202;9.876;2023-09-19T06:15:12;7.80;;;4.50;;
19675;SDS011;39539;52.202;9.876;2023-09-19T06:17:50;5.38;;;4.00;;
19675;SDS011;39539;52.202;9.876;2023-09-19T06:20:20;4.57;;;4.00;;
19675;SDS011;39539;52.202;9.876;2023-09-19T06:22:47;7.68;;;4.65;;
19675;SDS011;39539;52.202;9.876;2023-09-19T06:25:15;8.57;;;4.90;;
19675;SDS011;39539;52.202;9.876;2023-09-19T06:27:44;7.75;;;4.55;;
19675;SDS011;39539;52.202;9.876;2023-09-19T06:30:22;6.00;;;4.18;;
19675;SDS011;39539;52.202;9.876;2023-09-19T06:32:55;9.68;;;4.10;;
19675;SDS011;39539;52.202;9.876;2023-09-19T06:35:30;6.47;;;4.05;;
19675;SDS011;39539;52.202;9.876;2023-09-19T06:37:58;10.63;;;4.15;;
19675;SDS011;39539;52.202;9.876;2023-09-19T06:40:28;7.32;;;3.80;;
19675;SDS011;39539;52.202;9.876;2023-09-19T06:42:55;7.35;;;4.25;;
19675;SDS011;39539;52.202;9.876;2023-09-19T06:45:22;5.38;;;2.90;;
19675;SDS011;39539;52.202;9.876;2023-09-19T06:47:51;6.35;;;3.42;;
19675;SDS011;39539;52.202;9.876;2023-09-19T06:50:21;6.13;;;2.90;;
19675;SDS011;39539;52.202;9.876;2023-09-19T06:52:53;6.13;;;3.00;;
19675;SDS011;39539;52.202;9.876;2023-09-19T06:55:29;6.22;;;2.83;;
19675;SDS011;39539;52.202;9.876;2023-09-19T07:00:48;6.43;;;3.10;;
19675;SDS011;39539;52.202;9.876;2023-09-19T07:03:15;4.78;;;2.50;;
19675;SDS011;39539;52.202;9.876;2023-09-19T07:05:47;4.40;;;2.53;;
19675;SDS011;39539;52.202;9.876;2023-09-19T07:08:22;5.38;;;2.92;;
19675;SDS011;39539;52.202;9.876;2023-09-19T07:16:25;5.50;;;2.25;;
19675;SDS011;39539;52.202;9.876;2023-09-19T07:18:57;6.85;;;2.30;;
19675;SDS011;39539;52.202;9.876;2023-09-19T07:21:28;5.32;;;2.22;;
19675;SDS011;39539;52.202;9.876;2023-09-19T07:23:55;7.05;;;2.78;;
19675;SDS011;39539;52.202;9.876;2023-09-19T07:26:23;5.65;;;2.40;;
19675;SDS011;39539;52.202;9.876;2023-09-19T07:28:49;5.20;;;2.38;;
19675;SDS011;39539;52.202;9.876;2023-09-19T07:31:18;3.25;;;1.90;;
19675;SDS011;39539;52.202;9.876;2023-09-19T07:33:46;4.03;;;2.20;;
19675;SDS011;39539;52.202;9.876;2023-09-19T07:36:12;3.45;;;1.80;;
19675;SDS011;39539;52.202;9.876;2023-09-19T07:38:50;4.45;;;2.17;;
19675;SDS011;39539;52.202;9.876;2023-09-19T07:41:15;5.03;;;2.25;;
19675;SDS011;39539;52.202;9.876;2023-09-19T07:43:41;6.15;;;2.20;;
19675;SDS011;39539;52.202;9.876;2023-09-19T07:46:08;3.75;;;2.30;;
19675;SDS011;39539;52.202;9.876;2023-09-19T07:54:22;5.55;;;1.90;;
19675;SDS011;39539;52.202;9.876;2023-09-19T07:56:50;4.40;;;2.20;;
19675;SDS011;39539;52.202;9.876;2023-09-19T08:02:06;4.90;;;2.13;;
19675;SDS011;39539;52.202;9.876;2023-09-19T08:04:34;4.43;;;1.90;;
19675;SDS011;39539;52.202;9.876;2023-09-19T08:07:03;5.03;;;2.25;;
19675;SDS011;39539;52.202;9.876;2023-09-19T08:09:29;5.80;;;2.40;;
19675;SDS011;39539;52.202;9.876;2023-09-19T08:12:01;4.65;;;2.10;;
19675;SDS011;39539;52.202;9.876;2023-09-19T08:14:31;6.85;;;2.30;;
19675;SDS011;39539;52.202;9.876;2023-09-19T08:16:58;4.82;;;2.03;;
19675;SDS011;39539;52.202;9.876;2023-09-19T08:19:24;6.05;;;2.25;;
19675;SDS011;39539;52.202;9.876;2023-09-19T08:21:58;3.55;;;1.98;;
19675;SDS011;39539;52.202;9.876;2023-09-19T08:24:25;6.20;;;2.42;;
19675;SDS011;39539;52.202;9.876;2023-09-19T08:26:58;5.63;;;2.50;;
19675;SDS011;39539;52.202;9.876;2023-09-19T08:29:27;8.18;;;2.15;;
19675;SDS011;39539;52.202;9.876;2023-09-19T08:32:01;5.20;;;2.30;;
19675;SDS011;39539;52.202;9.876;2023-09-19T08:34:30;3.95;;;2.45;;
19675;SDS011;39539;52.202;9.876;2023-09-19T08:37:00;4.70;;;2.17;;
19675;SDS011;39539;52.202;9.876;2023-09-19T08:39:26;4.05;;;1.73;;
19675;SDS011;39539;52.202;9.876;2023-09-19T08:41:56;3.38;;;1.70;;
19675;SDS011;39539;52.202;9.876;2023-09-19T08:44:29;3.85;;;2.00;;
19675;SDS011;39539;52.202;9.876;2023-09-19T08:47:00;3.38;;;1.70;;
19675;SDS011;39539;52.202;9.876;2023-09-19T08:53:00;5.38;;;1.73;;
19675;SDS011;39539;52.202;9.876;2023-09-19T08:55:28;4.05;;;1.70;;
19675;SDS011;39539;52.202;9.876;2023-09-19T08:58:03;4.43;;;2.03;;
19675;SDS011;39539;52.202;9.876;2023-09-19T09:00:38;4.18;;;1.80;;
19675;SDS011;39539;52.202;9.876;2023-09-19T09:03:12;3.75;;;1.88;;
19675;SDS011;39539;52.202;9.876;2023-09-19T09:05:49;4.60;;;2.00;;
19675;SDS011;39539;52.202;9.876;2023-09-19T09:08:16;4.65;;;1.90;;
19675;SDS011;39539;52.202;9.876;2023-09-19T09:10:45;3.70;;;2.03;;
19675;SDS011;39539;52.202;9.876;2023-09-19T09:13:16;4.88;;;1.80;;
19675;SDS011;39539;52.202;9.876;2023-09-19T09:15:43;2.83;;;1.52;;
19675;SDS011;39539;52.202;9.876;2023-09-19T09:18:12;5.63;;;1.80;;
19675;SDS011;39539;52.202;9.876;2023-09-19T09:20:44;4.05;;;2.10;;
19675;SDS011;39539;52.202;9.876;2023-09-19T09:23:10;4.68;;;1.85;;
19675;SDS011;39539;52.202;9.876;2023-09-19T09:25:51;4.30;;;2.00;;
19675;SDS011;39539;52.202;9.876;2023-09-19T09:28:27;6.28;;;2.28;;
19675;SDS011;39539;52.202;9.876;2023-09-19T09:30:54;6.18;;;2.50;;
19675;SDS011;39539;52.202;9.876;2023-09-19T09:33:20;6.82;;;2.28;;
19675;SDS011;39539;52.202;9.876;2023-09-19T09:36:00;5.07;;;2.20;;
19675;SDS011;39539;52.202;9.876;2023-09-19T09:38:44;4.13;;;1.95;;
19675;SDS011;39539;52.202;9.876;2023-09-19T09:41:11;4.00;;;2.05;;
19675;SDS011;39539;52.202;9.876;2023-09-19T09:43:41;4.25;;;1.77;;
19675;SDS011;39539;52.202;9.876;2023-09-19T09:46:20;4.00;;;2.17;;
19675;SDS011;39539;52.202;9.876;2023-09-19T09:49:05;4.63;;;1.85;;
19675;SDS011;39539;52.202;9.876;2023-09-19T09:52:07;5.07;;;2.05;;
19675;SDS011;39539;52.202;9.876;2023-09-19T09:55:00;4.38;;;1.80;;
19675;SDS011;39539;52.202;9.876;2023-09-19T09:57:31;4.75;;;1.98;;
19675;SDS011;39539;52.202;9.876;2023-09-19T10:00:04;4.82;;;1.85;;
19675;SDS011;39539;52.202;9.876;2023-09-19T10:02:40;6.38;;;2.50;;
19675;SDS011;39539;52.202;9.876;2023-09-19T10:05:20;4.72;;;2.17;;
19675;SDS011;39539;52.202;9.876;2023-09-19T10:07:49;3.90;;;1.83;;
19675;SDS011;39539;52.202;9.876;2023-09-19T10:10:33;5.18;;;2.10;;
19675;SDS011;39539;52.202;9.876;2023-09-19T10:13:13;5.32;;;2.42;;
19675;SDS011;39539;52.202;9.876;2023-09-19T10:15:49;2.70;;;1.77;;
19675;SDS011;39539;52.202;9.876;2023-09-19T10:18:25;3.70;;;1.70;;
19675;SDS011;39539;52.202;9.876;2023-09-19T10:20:59;3.75;;;1.98;;
19675;SDS011;39539;52.202;9.876;2023-09-19T10:23:27;3.95;;;1.80;;
19675;SDS011;39539;52.202;9.876;2023-09-19T10:25:56;4.95;;;2.13;;
19675;SDS011;39539;52.202;9.876;2023-09-19T10:28:23;4.47;;;1.98;;
19675;SDS011;39539;52.202;9.876;2023-09-19T10:30:53;7.18;;;2.17;;
19675;SDS011;39539;52.202;9.876;2023-09-19T10:33:19;2.60;;;1.83;;
19675;SDS011;39539;52.202;9.876;2023-09-19T10:35:52;3.90;;;2.38;;
19675;SDS011;39539;52.202;9.876;2023-09-19T10:38:25;4.50;;;2.35;;
19675;SDS011;39539;52.202;9.876;2023-09-19T10:40:54;6.63;;;2.65;;
19675;SDS011;39539;52.202;9.876;2023-09-19T10:43:29;4.93;;;2.35;;
19675;SDS011;39539;52.202;9.876;2023-09-19T10:45:57;5.95;;;2.40;;
19675;SDS011;39539;52.202;9.876;2023-09-19T10:48:26;4.72;;;2.60;;
19675;SDS011;39539;52.202;9.876;2023-09-19T10:56:48;9.00;;;2.53;;
19675;SDS011;39539;52.202;9.876;2023-09-19T10:59:19;3.88;;;1.92;;
19675;SDS011;39539;52.202;9.876;2023-09-19T11:01:55;7.00;;;2.35;;
19675;SDS011;39539;52.202;9.876;2023-09-19T11:04:30;9.35;;;2.63;;
19675;SDS011;39539;52.202;9.876;2023-09-19T11:12:59;5.65;;;2.35;;
19675;SDS011;39539;52.202;9.876;2023-09-19T11:15:06;5.35;;;2.17;;
19675;SDS011;39539;52.202;9.876;2023-09-19T11:17:39;7.28;;;2.63;;
19675;SDS011;39539;52.202;9.876;2023-09-19T11:30:34;7.32;;;2.80;;
19675;SDS011;39539;52.202;9.876;2023-09-19T11:33:21;5.13;;;2.65;;
19675;SDS011;39539;52.202;9.876;2023-09-19T11:46:25;4.15;;;2.45;;
19675;SDS011;39539;52.202;9.876;2023-09-19T11:48:53;4.95;;;2.30;;
19675;SDS011;39539;52.202;9.876;2023-09-19T11:51:20;5.82;;;2.47;;
19675;SDS011;39539;52.202;9.876;2023-09-19T11:53:53;6.75;;;2.65;;
19675;SDS011;39539;52.202;9.876;2023-09-19T11:56:25;4.63;;;2.25;;
19675;SDS011;39539;52.202;9.876;2023-09-19T11:58:54;6.07;;;2.70;;
19675;SDS011;39539;52.202;9.876;2023-09-19T12:01:21;6.05;;;2.80;;
19675;SDS011;39539;52.202;9.876;2023-09-19T12:04:00;3.92;;;2.35;;
19675;SDS011;39539;52.202;9.876;2023-09-19T12:06:29;4.70;;;2.65;;
19675;SDS011;39539;52.202;9.876;2023-09-19T12:08:57;4.05;;;2.38;;
19675;SDS011;39539;52.202;9.876;2023-09-19T12:11:27;4.40;;;2.33;;
19675;SDS011;39539;52.202;9.876;2023-09-19T12:14:01;5.45;;;2.40;;
19675;SDS011;39539;52.202;9.876;2023-09-19T12:16:28;5.35;;;2.53;;
19675;SDS011;39539;52.202;9.876;2023-09-19T12:18:56;5.60;;;2.45;;
19675;SDS011;39539;52.202;9.876;2023-09-19T12:21:30;4.70;;;2.30;;
19675;SDS011;39539;52.202;9.876;2023-09-19T12:24:14;5.35;;;2.40;;
19675;SDS011;39539;52.202;9.876;2023-09-19T12:26:42;3.33;;;2.17;;
19675;SDS011;39539;52.202;9.876;2023-09-19T12:29:12;2.90;;;2.03;;
19675;SDS011;39539;52.202;9.876;2023-09-19T12:32:00;6.55;;;2.72;;
19675;SDS011;39539;52.202;9.876;2023-09-19T12:34:32;2.58;;;2.05;;
19675;SDS011;39539;52.202;9.876;2023-09-19T12:37:07;3.60;;;2.40;;
19675;SDS011;39539;52.202;9.876;2023-09-19T12:40:02;4.75;;;2.40;;
19675;SDS011;39539;52.202;9.876;2023-09-19T12:42:40;4.55;;;2.47;;
19675;SDS011;39539;52.202;9.876;2023-09-19T12:45:07;4.32;;;2.30;;
19675;SDS011;39539;52.202;9.876;2023-09-19T12:48:17;3.75;;;2.88;;
19675;SDS011;39539;52.202;9.876;2023-09-19T12:53:56;4.47;;;2.55;;
19675;SDS011;39539;52.202;9.876;2023-09-19T12:56:26;3.95;;;2.28;;
19675;SDS011;39539;52.202;9.876;2023-09-19T12:59:00;4.28;;;2.85;;
19675;SDS011;39539;52.202;9.876;2023-09-19T13:01:33;3.83;;;2.65;;
19675;SDS011;39539;52.202;9.876;2023-09-19T13:04:11;4.78;;;2.55;;
19675;SDS011;39539;52.202;9.876;2023-09-19T13:06:45;3.83;;;2.75;;
19675;SDS011;39539;52.202;9.876;2023-09-19T13:09:20;4.10;;;2.60;;
19675;SDS011;39539;52.202;9.876;2023-09-19T13:11:46;3.72;;;2.63;;
19675;SDS011;39539;52.202;9.876;2023-09-19T13:14:17;3.75;;;2.60;;
19675;SDS011;39539;52.202;9.876;2023-09-19T13:16:59;4.85;;;3.03;;
19675;SDS011;39539;52.202;9.876;2023-09-19T13:25:17;5.25;;;2.65;;
19675;SDS011;39539;52.202;9.876;2023-09-19T13:27:43;5.38;;;2.42;;
19675;SDS011;39539;52.202;9.876;2023-09-19T13:30:11;4.20;;;2.55;;
19675;SDS011;39539;52.202;9.876;2023-09-19T13:32:37;3.95;;;2.58;;
19675;SDS011;39539;52.202;9.876;2023-09-19T13:35:04;4.35;;;2.63;;
19675;SDS011;39539;52.202;9.876;2023-09-19T13:37:32;4.40;;;2.33;;
19675;SDS011;39539;52.202;9.876;2023-09-19T13:39:59;4.72;;;2.40;;
19675;SDS011;39539;52.202;9.876;2023-09-19T13:42:24;4.30;;;2.40;;
19675;SDS011;39539;52.202;9.876;2023-09-19T13:44:50;4.43;;;2.17;;
19675;SDS011;39539;52.202;9.876;2023-09-19T13:47:18;5.97;;;2.55;;
19675;SDS011;39539;52.202;9.876;2023-09-19T13:49:50;3.00;;;2.22;;
19675;SDS011;39539;52.202;9.876;2023-09-19T13:52:20;3.80;;;2.40;;
19675;SDS011;39539;52.202;9.876;2023-09-19T13:54:48;3.70;;;2.25;;
19675;SDS011;39539;52.202;9.876;2023-09-19T13:57:16;4.45;;;2.67;;
19675;SDS011;39539;52.202;9.876;2023-09-19T13:59:43;3.58;;;2.40;;
19675;SDS011;39539;52.202;9.876;2023-09-19T14:02:09;4.97;;;2.45;;
19675;SDS011;39539;52.202;9.876;2023-09-19T14:04:35;5.18;;;2.60;;
19675;SDS011;39539;52.202;9.876;2023-09-19T14:07:16;4.25;;;2.40;;
19675;SDS011;39539;52.202;9.876;2023-09-19T14:09:42;4.13;;;2.53;;
19675;SDS011;39539;52.202;9.876;2023-09-19T14:12:26;5.22;;;2.70;;
19675;SDS011;39539;52.202;9.876;2023-09-19T14:14:53;3.58;;;2.17;;
19675;SDS011;39539;52.202;9.876;2023-09-19T14:17:22;3.83;;;2.67;;
19675;SDS011;39539;52.202;9.876;2023-09-19T14:19:49;3.45;;;2.30;;
19675;SDS011;39539;52.202;9.876;2023-09-19T14:22:14;4.25;;;2.42;;
19675;SDS011;39539;52.202;9.876;2023-09-19T14:24:47;3.97;;;2.38;;
19675;SDS011;39539;52.202;9.876;2023-09-19T14:27:25;5.38;;;2.50;;
19675;SDS011;39539;52.202;9.876;2023-09-19T14:29:52;4.30;;;2.50;;
19675;SDS011;39539;52.202;9.876;2023-09-19T14:32:17;4.20;;;2.42;;
19675;SDS011;39539;52.202;9.876;2023-09-19T14:34:44;4.13;;;2.42;;
19675;SDS011;39539;52.202;9.876;2023-09-19T14:37:10;4.03;;;2.33;;
19675;SDS011;39539;52.202;9.876;2023-09-19T14:39:41;3.92;;;2.20;;
19675;SDS011;39539;52.202;9.876;2023-09-19T14:42:10;4.75;;;2.65;;
19675;SDS011;39539;52.202;9.876;2023-09-19T14:44:37;3.67;;;2.20;;
19675;SDS011;39539;52.202;9.876;2023-09-19T14:47:03;4.53;;;2.53;;
19675;SDS011;39539;52.202;9.876;2023-09-19T14:49:33;4.00;;;2.20;;
19675;SDS011;39539;52.202;9.876;2023-09-19T14:51:59;3.42;;;2.35;;
19675;SDS011;39539;52.202;9.876;2023-09-19T14:54:30;3.75;;;1.92;;
19675;SDS011;39539;52.202;9.876;2023-09-19T14:57:02;3.80;;;2.25;;
19675;SDS011;39539;52.202;9.876;2023-09-19T14:59:33;4.78;;;2.03;;
19675;SDS011;39539;52.202;9.876;2023-09-19T15:02:03;4.53;;;1.95;;
19675;SDS011;39539;52.202;9.876;2023-09-19T15:04:30;3.20;;;1.80;;
19675;SDS011;39539;52.202;9.876;2023-09-19T15:07:02;2.90;;;1.67;;
19675;SDS011;39539;52.202;9.876;2023-09-19T15:09:27;4.45;;;2.20;;
19675;SDS011;39539;52.202;9.876;2023-09-19T15:12:06;5.30;;;1.98;;
19675;SDS011;39539;52.202;9.876;2023-09-19T15:14:32;2.72;;;1.77;;
19675;SDS011;39539;52.202;9.876;2023-09-19T15:17:03;3.20;;;1.90;;
19675;SDS011;39539;52.202;9.876;2023-09-19T15:19:35;3.50;;;2.10;;
19675;SDS011;39539;52.202;9.876;2023-09-19T15:22:04;3.88;;;1.67;;
19675;SDS011;39539;52.202;9.876;2023-09-19T15:27:21;2.67;;;1.58;;
19675;SDS011;39539;52.202;9.876;2023-09-19T15:29:49;3.28;;;2.20;;
19675;SDS011;39539;52.202;9.876;2023-09-19T15:32:20;2.65;;;1.80;;
19675;SDS011;39539;52.202;9.876;2023-09-19T15:35:01;3.58;;;2.08;;
19675;SDS011;39539;52.202;9.876;2023-09-19T15:37:26;3.20;;;1.83;;
19675;SDS011;39539;52.202;9.876;2023-09-19T15:39:55;2.70;;;1.90;;
19675;SDS011;39539;52.202;9.876;2023-09-19T15:42:29;4.55;;;1.67;;
19675;SDS011;39539;52.202;9.876;2023-09-19T15:45:04;3.35;;;1.40;;
19675;SDS011;39539;52.202;9.876;2023-09-19T15:47:31;3.40;;;1.77;;
19675;SDS011;39539;52.202;9.876;2023-09-19T15:50:00;3.22;;;1.50;;
19675;SDS011;39539;52.202;9.876;2023-09-19T15:52:26;5.95;;;2.10;;
19675;SDS011;39539;52.202;9.876;2023-09-19T15:54:52;3.47;;;1.77;;
19675;SDS011;39539;52.202;9.876;2023-09-19T15:57:20;2.65;;;1.70;;
19675;SDS011;39539;52.202;9.876;2023-09-19T15:59:46;3.35;;;1.90;;
19675;SDS011;39539;52.202;9.876;2023-09-19T16:02:13;2.58;;;1.67;;
19675;SDS011;39539;52.202;9.876;2023-09-19T16:04:38;3.92;;;1.73;;
19675;SDS011;39539;52.202;9.876;2023-09-19T16:07:04;3.60;;;1.65;;
19675;SDS011;39539;52.202;9.876;2023-09-19T16:09:29;2.33;;;1.70;;
19675;SDS011;39539;52.202;9.876;2023-09-19T16:11:55;2.95;;;1.75;;
19675;SDS011;39539;52.202;9.876;2023-09-19T16:14:20;4.38;;;2.22;;
19675;SDS011;39539;52.202;9.876;2023-09-19T16:16:49;5.05;;;1.88;;